sensor_id;sensor_type;location;lat;lon;timestamp;temperature;humidity
7445;DHT22;3764;48.126;11.594;2023-08-20T00:01:26;24.00;99.90
7445;DHT22;3764;48.126;11.594;2023-08-20T00:03:54;24.00;99.90
7445;DHT22;3764;48.126;11.594;2023-08-20T00:06:23;24.00;99.90
7445;DHT22;3764;48.126;11.594;2023-08-20T00:08:50;24.00;99.90
7445;DHT22;3764;48.126;11.594;2023-08-20T00:11:18;24.00;99.90
7445;DHT22;3764;48.126;11.594;2023-08-20T00:13:45;24.00;99.90
7445;DHT22;3764;48.126;11.594;2023-08-20T00:16:13;23.90;99.90
7445;DHT22;3764;48.126;11.594;2023-08-20T00:18:40;23.90;99.90
7445;DHT22;3764;48.126;11.594;2023-08-20T00:21:08;23.90;99.90
7445;DHT22;3764;48.126;11.594;2023-08-20T00:23:36;23.80;99.90
7445;DHT22;3764;48.126;11.594;2023-08-20T00:26:04;23.80;99.90
7445;DHT22;3764;48.126;11.594;2023-08-20T00:28:32;23.80;99.90
7445;DHT22;3764;48.126;11.594;2023-08-20T00:31:00;23.80;99.90
7445;DHT22;3764;48.126;11.594;2023-08-20T00:33:28;23.80;99.90
7445;DHT22;3764;48.126;11.594;2023-08-20T00:35:55;23.80;99.90
7445;DHT22;3764;48.126;11.594;2023-08-20T00:38:22;23.70;99.90
7445;DHT22;3764;48.126;11.594;2023-08-20T00:40:49;23.70;99.90
7445;DHT22;3764;48.126;11.594;2023-08-20T00:43:16;23.70;99.90
7445;DHT22;3764;48.126;11.594;2023-08-20T00:45:45;23.70;99.90
7445;DHT22;3764;48.126;11.594;2023-08-20T00:48:12;23.50;99.90
7445;DHT22;3764;48.126;11.594;2023-08-20T00:50:40;23.40;99.90
7445;DHT22;3764;48.126;11.594;2023-08-20T00:53:08;23.40;99.90
7445;DHT22;3764;48.126;11.594;2023-08-20T00:55:37;23.40;99.90
7445;DHT22;3764;48.126;11.594;2023-08-20T00:58:05;23.40;99.90
7445;DHT22;3764;48.126;11.594;2023-08-20T01:00:32;23.40;99.90
7445;DHT22;3764;48.126;11.594;2023-08-20T01:03:00;23.40;99.90
7445;DHT22;3764;48.126;11.594;2023-08-20T01:05:32;23.40;99.90
7445;DHT22;3764;48.126;11.594;2023-08-20T01:08:08;23.40;99.90
7445;DHT22;3764;48.126;11.594;2023-08-20T01:10:42;23.40;99.90
7445;DHT22;3764;48.126;11.594;2023-08-20T01:13:15;23.40;99.90
7445;DHT22;3764;48.126;11.594;2023-08-20T01:15:42;23.40;99.90
7445;DHT22;3764;48.126;11.594;2023-08-20T01:18:11;23.40;99.90
7445;DHT22;3764;48.126;11.594;2023-08-20T01:20:41;23.40;99.90
7445;DHT22;3764;48.126;11.594;2023-08-20T01:23:48;23.40;99.90
7445;DHT22;3764;48.126;11.594;2023-08-20T01:26:38;23.40;99.90
7445;DHT22;3764;48.126;11.594;2023-08-20T01:29:10;23.40;99.90
7445;DHT22;3764;48.126;11.594;2023-08-20T01:31:38;23.30;99.90
7445;DHT22;3764;48.126;11.594;2023-08-20T01:34:06;23.30;99.90
7445;DHT22;3764;48.126;11.594;2023-08-20T01:36:33;23.30;99.90
7445;DHT22;3764;48.126;11.594;2023-08-20T01:39:00;23.30;99.90
7445;DHT22;3764;48.126;11.594;2023-08-20T01:41:28;23.30;99.90
7445;DHT22;3764;48.126;11.594;2023-08-20T01:43:55;23.30;99.90
7445;DHT22;3764;48.126;11.594;2023-08-20T01:46:24;23.30;99.90
7445;DHT22;3764;48.126;11.594;2023-08-20T01:48:51;23.30;99.90
7445;DHT22;3764;48.126;11.594;2023-08-20T01:51:18;23.30;99.90
7445;DHT22;3764;48.126;11.594;2023-08-20T01:53:45;23.30;99.90
7445;DHT22;3764;48.126;11.594;2023-08-20T01:56:12;23.20;99.90
7445;DHT22;3764;48.126;11.594;2023-08-20T01:58:39;23.20;99.90
7445;DHT22;3764;48.126;11.594;2023-08-20T02:01:06;23.20;99.90
7445;DHT22;3764;48.126;11.594;2023-08-20T02:03:38;23.20;99.90
7445;DHT22;3764;48.126;11.594;2023-08-20T02:06:05;23.10;99.90
7445;DHT22;3764;48.126;11.594;2023-08-20T02:08:32;23.10;99.90
7445;DHT22;3764;48.126;11.594;2023-08-20T02:11:00;23.10;99.90
7445;DHT22;3764;48.126;11.594;2023-08-20T02:13:28;23.10;99.90
7445;DHT22;3764;48.126;11.594;2023-08-20T02:15:59;23.10;99.90
7445;DHT22;3764;48.126;11.594;2023-08-20T02:18:26;23.10;99.90
7445;DHT22;3764;48.126;11.594;2023-08-20T02:20:55;23.10;99.90
7445;DHT22;3764;48.126;11.594;2023-08-20T02:23:22;23.00;99.90
7445;DHT22;3764;48.126;11.594;2023-08-20T02:25:49;23.00;99.90
7445;DHT22;3764;48.126;11.594;2023-08-20T02:28:17;23.00;99.90
7445;DHT22;3764;48.126;11.594;2023-08-20T02:30:45;23.00;99.90
7445;DHT22;3764;48.126;11.594;2023-08-20T02:33:12;23.00;99.90
7445;DHT22;3764;48.126;11.594;2023-08-20T02:35:39;22.90;99.90
7445;DHT22;3764;48.126;11.594;2023-08-20T02:38:08;23.00;99.90
7445;DHT22;3764;48.126;11.594;2023-08-20T02:40:39;22.90;99.90
7445;DHT22;3764;48.126;11.594;2023-08-20T02:43:07;22.90;99.90
7445;DHT22;3764;48.126;11.594;2023-08-20T02:45:39;22.90;99.90
7445;DHT22;3764;48.126;11.594;2023-08-20T02:48:07;22.90;99.90
7445;DHT22;3764;48.126;11.594;2023-08-20T02:50:34;22.80;99.90
7445;DHT22;3764;48.126;11.594;2023-08-20T02:53:01;22.90;99.90
7445;DHT22;3764;48.126;11.594;2023-08-20T02:55:30;22.80;99.90
7445;DHT22;3764;48.126;11.594;2023-08-20T02:57:57;22.80;99.90
7445;DHT22;3764;48.126;11.594;2023-08-20T03:00:24;22.80;99.90
7445;DHT22;3764;48.126;11.594;2023-08-20T03:02:51;22.80;99.90
7445;DHT22;3764;48.126;11.594;2023-08-20T03:05:19;22.80;99.90
7445;DHT22;3764;48.126;11.594;2023-08-20T03:07:46;22.80;99.90
7445;DHT22;3764;48.126;11.594;2023-08-20T03:10:13;22.80;99.90
7445;DHT22;3764;48.126;11.594;2023-08-20T03:12:41;22.80;99.90
7445;DHT22;3764;48.126;11.594;2023-08-20T03:15:09;22.70;99.90
7445;DHT22;3764;48.126;11.594;2023-08-20T03:17:36;22.70;99.90
7445;DHT22;3764;48.126;11.594;2023-08-20T03:20:03;22.70;99.90
7445;DHT22;3764;48.126;11.594;2023-08-20T03:22:32;22.70;99.90
7445;DHT22;3764;48.126;11.594;2023-08-20T03:24:59;22.70;99.90
7445;DHT22;3764;48.126;11.594;2023-08-20T03:27:26;22.60;99.90
7445;DHT22;3764;48.126;11.594;2023-08-20T03:29:55;22.70;99.90
7445;DHT22;3764;48.126;11.594;2023-08-20T03:32:22;22.70;99.90
7445;DHT22;3764;48.126;11.594;2023-08-20T03:34:50;22.60;99.90
7445;DHT22;3764;48.126;11.594;2023-08-20T03:37:19;22.70;99.90
7445;DHT22;3764;48.126;11.594;2023-08-20T03:39:46;22.60;99.90
7445;DHT22;3764;48.126;11.594;2023-08-20T03:42:13;22.60;99.90
7445;DHT22;3764;48.126;11.594;2023-08-20T03:44:40;22.60;99.90
7445;DHT22;3764;48.126;11.594;2023-08-20T03:47:08;22.60;99.90
7445;DHT22;3764;48.126;11.594;2023-08-20T03:49:36;22.60;99.90
7445;DHT22;3764;48.126;11.594;2023-08-20T03:52:03;22.50;99.90
7445;DHT22;3764;48.126;11.594;2023-08-20T03:54:33;22.50;99.90
7445;DHT22;3764;48.126;11.594;2023-08-20T03:57:00;22.60;99.90
7445;DHT22;3764;48.126;11.594;2023-08-20T03:59:27;22.60;99.90
7445;DHT22;3764;48.126;11.594;2023-08-20T04:01:54;22.50;99.90
7445;DHT22;3764;48.126;11.594;2023-08-20T04:04:23;22.50;99.90
7445;DHT22;3764;48.126;11.594;2023-08-20T04:06:51;22.50;99.90
7445;DHT22;3764;48.126;11.594;2023-08-20T04:09:18;22.50;99.90
7445;DHT22;3764;48.126;11.594;2023-08-20T04:11:45;22.50;99.90
7445;DHT22;3764;48.126;11.594;2023-08-20T04:14:12;22.50;99.90
7445;DHT22;3764;48.126;11.594;2023-08-20T04:16:39;22.50;99.90
7445;DHT22;3764;48.126;11.594;2023-08-20T04:19:06;22.50;99.90
7445;DHT22;3764;48.126;11.594;2023-08-20T04:21:35;22.50;99.90
7445;DHT22;3764;48.126;11.594;2023-08-20T04:24:02;22.50;99.90
7445;DHT22;3764;48.126;11.594;2023-08-20T04:26:29;22.50;99.90
7445;DHT22;3764;48.126;11.594;2023-08-20T04:28:56;22.40;99.90
7445;DHT22;3764;48.126;11.594;2023-08-20T04:31:23;22.50;99.90
7445;DHT22;3764;48.126;11.594;2023-08-20T04:33:50;22.50;99.90
7445;DHT22;3764;48.126;11.594;2023-08-20T04:36:17;22.40;99.90
7445;DHT22;3764;48.126;11.594;2023-08-20T04:38:46;22.40;99.90
7445;DHT22;3764;48.126;11.594;2023-08-20T04:41:13;22.40;99.90
7445;DHT22;3764;48.126;11.594;2023-08-20T04:43:40;22.40;99.90
7445;DHT22;3764;48.126;11.594;2023-08-20T04:46:07;22.40;99.90
7445;DHT22;3764;48.126;11.594;2023-08-20T04:48:35;22.40;99.90
7445;DHT22;3764;48.126;11.594;2023-08-20T04:51:02;22.40;99.90
7445;DHT22;3764;48.126;11.594;2023-08-20T04:53:29;22.40;99.90
7445;DHT22;3764;48.126;11.594;2023-08-20T04:55:58;22.40;99.90
7445;DHT22;3764;48.126;11.594;2023-08-20T04:58:25;22.30;99.90
7445;DHT22;3764;48.126;11.594;2023-08-20T05:00:52;22.30;99.90
7445;DHT22;3764;48.126;11.594;2023-08-20T05:03:19;22.20;99.90
7445;DHT22;3764;48.126;11.594;2023-08-20T05:05:49;22.20;99.90
7445;DHT22;3764;48.126;11.594;2023-08-20T05:08:16;22.10;99.90
7445;DHT22;3764;48.126;11.594;2023-08-20T05:10:43;22.10;99.90
7445;DHT22;3764;48.126;11.594;2023-08-20T05:13:11;22.10;99.90
7445;DHT22;3764;48.126;11.594;2023-08-20T05:15:38;22.10;99.90
7445;DHT22;3764;48.126;11.594;2023-08-20T05:18:06;22.10;99.90
7445;DHT22;3764;48.126;11.594;2023-08-20T05:20:33;22.10;99.90
7445;DHT22;3764;48.126;11.594;2023-08-20T05:23:00;22.00;99.90
7445;DHT22;3764;48.126;11.594;2023-08-20T05:25:27;22.00;99.90
7445;DHT22;3764;48.126;11.594;2023-08-20T05:27:54;22.00;99.90
7445;DHT22;3764;48.126;11.594;2023-08-20T05:30:22;22.00;99.90
7445;DHT22;3764;48.126;11.594;2023-08-20T05:32:49;22.00;99.90
7445;DHT22;3764;48.126;11.594;2023-08-20T05:35:17;22.00;99.90
7445;DHT22;3764;48.126;11.594;2023-08-20T05:37:44;21.90;99.90
7445;DHT22;3764;48.126;11.594;2023-08-20T05:40:11;21.90;99.90
7445;DHT22;3764;48.126;11.594;2023-08-20T05:42:38;21.80;99.90
7445;DHT22;3764;48.126;11.594;2023-08-20T05:45:06;21.80;99.90
7445;DHT22;3764;48.126;11.594;2023-08-20T05:47:34;21.80;99.90
7445;DHT22;3764;48.126;11.594;2023-08-20T05:50:02;21.80;99.90
7445;DHT22;3764;48.126;11.594;2023-08-20T05:52:29;21.80;99.90
7445;DHT22;3764;48.126;11.594;2023-08-20T05:54:56;21.80;99.90
7445;DHT22;3764;48.126;11.594;2023-08-20T05:57:23;21.80;99.90
7445;DHT22;3764;48.126;11.594;2023-08-20T05:59:50;21.80;99.90
7445;DHT22;3764;48.126;11.594;2023-08-20T06:02:17;21.90;99.90
7445;DHT22;3764;48.126;11.594;2023-08-20T06:04:46;21.90;99.90
7445;DHT22;3764;48.126;11.594;2023-08-20T06:07:13;21.90;99.90
7445;DHT22;3764;48.126;11.594;2023-08-20T06:09:40;21.90;99.90
7445;DHT22;3764;48.126;11.594;2023-08-20T06:12:08;21.90;99.90
7445;DHT22;3764;48.126;11.594;2023-08-20T06:14:35;21.90;99.90
7445;DHT22;3764;48.126;11.594;2023-08-20T06:17:02;21.90;99.90
7445;DHT22;3764;48.126;11.594;2023-08-20T06:19:29;21.90;99.90
7445;DHT22;3764;48.126;11.594;2023-08-20T06:21:58;21.90;99.90
7445;DHT22;3764;48.126;11.594;2023-08-20T06:24:25;21.90;99.90
7445;DHT22;3764;48.126;11.594;2023-08-20T06:26:52;22.00;99.90
7445;DHT22;3764;48.126;11.594;2023-08-20T06:29:19;22.00;99.90
7445;DHT22;3764;48.126;11.594;2023-08-20T06:31:47;22.00;99.90
7445;DHT22;3764;48.126;11.594;2023-08-20T06:34:14;22.10;99.90
7445;DHT22;3764;48.126;11.594;2023-08-20T06:36:42;22.10;99.90
7445;DHT22;3764;48.126;11.594;2023-08-20T06:39:10;22.20;99.90
7445;DHT22;3764;48.126;11.594;2023-08-20T06:41:37;22.20;99.90
7445;DHT22;3764;48.126;11.594;2023-08-20T06:44:05;22.20;99.90
7445;DHT22;3764;48.126;11.594;2023-08-20T06:46:32;22.30;99.90
7445;DHT22;3764;48.126;11.594;2023-08-20T06:48:59;22.30;99.90
7445;DHT22;3764;48.126;11.594;2023-08-20T06:51:26;22.40;99.90
7445;DHT22;3764;48.126;11.594;2023-08-20T06:53:54;22.40;99.90
7445;DHT22;3764;48.126;11.594;2023-08-20T06:56:23;22.40;99.90
7445;DHT22;3764;48.126;11.594;2023-08-20T06:58:50;22.50;99.90
7445;DHT22;3764;48.126;11.594;2023-08-20T07:01:17;22.50;99.90
7445;DHT22;3764;48.126;11.594;2023-08-20T07:03:44;22.50;99.90
7445;DHT22;3764;48.126;11.594;2023-08-20T07:06:12;22.60;99.90
7445;DHT22;3764;48.126;11.594;2023-08-20T07:08:41;22.60;99.90
7445;DHT22;3764;48.126;11.594;2023-08-20T07:11:09;22.60;99.90
7445;DHT22;3764;48.126;11.594;2023-08-20T07:13:37;22.70;99.90
7445;DHT22;3764;48.126;11.594;2023-08-20T07:16:04;22.70;99.90
7445;DHT22;3764;48.126;11.594;2023-08-20T07:18:31;22.70;99.90
7445;DHT22;3764;48.126;11.594;2023-08-20T07:20:58;22.70;99.90
7445;DHT22;3764;48.126;11.594;2023-08-20T07:23:26;22.80;99.90
7445;DHT22;3764;48.126;11.594;2023-08-20T07:26:04;22.80;99.90
7445;DHT22;3764;48.126;11.594;2023-08-20T07:28:32;22.80;99.90
7445;DHT22;3764;48.126;11.594;2023-08-20T07:31:14;22.80;99.90
7445;DHT22;3764;48.126;11.594;2023-08-20T07:33:41;22.90;99.90
7445;DHT22;3764;48.126;11.594;2023-08-20T07:36:12;22.90;99.90
7445;DHT22;3764;48.126;11.594;2023-08-20T07:38:39;23.00;99.90
7445;DHT22;3764;48.126;11.594;2023-08-20T07:41:08;23.00;99.90
7445;DHT22;3764;48.126;11.594;2023-08-20T07:43:35;23.10;99.90
7445;DHT22;3764;48.126;11.594;2023-08-20T07:46:03;23.10;99.90
7445;DHT22;3764;48.126;11.594;2023-08-20T07:48:31;23.10;99.90
7445;DHT22;3764;48.126;11.594;2023-08-20T07:50:59;23.20;99.90
7445;DHT22;3764;48.126;11.594;2023-08-20T07:53:26;23.20;99.90
7445;DHT22;3764;48.126;11.594;2023-08-20T07:55:53;23.30;99.90
7445;DHT22;3764;48.126;11.594;2023-08-20T07:58:20;23.30;99.90
7445;DHT22;3764;48.126;11.594;2023-08-20T08:00:47;23.40;99.90
7445;DHT22;3764;48.126;11.594;2023-08-20T08:03:14;23.40;99.90
7445;DHT22;3764;48.126;11.594;2023-08-20T08:05:47;23.50;99.90
7445;DHT22;3764;48.126;11.594;2023-08-20T08:08:15;23.50;99.90
7445;DHT22;3764;48.126;11.594;2023-08-20T08:10:43;23.50;99.90
7445;DHT22;3764;48.126;11.594;2023-08-20T08:13:11;23.60;99.90
7445;DHT22;3764;48.126;11.594;2023-08-20T08:15:38;23.60;99.90
7445;DHT22;3764;48.126;11.594;2023-08-20T08:18:06;23.70;99.90
7445;DHT22;3764;48.126;11.594;2023-08-20T08:20:33;23.70;99.90
7445;DHT22;3764;48.126;11.594;2023-08-20T08:23:02;23.80;99.90
7445;DHT22;3764;48.126;11.594;2023-08-20T08:25:29;23.80;99.90
7445;DHT22;3764;48.126;11.594;2023-08-20T08:27:56;23.90;99.90
7445;DHT22;3764;48.126;11.594;2023-08-20T08:30:23;23.90;99.90
7445;DHT22;3764;48.126;11.594;2023-08-20T08:32:51;24.00;99.90
7445;DHT22;3764;48.126;11.594;2023-08-20T08:35:19;24.10;99.90
7445;DHT22;3764;48.126;11.594;2023-08-20T08:37:46;24.10;99.90
7445;DHT22;3764;48.126;11.594;2023-08-20T08:40:15;24.20;99.90
7445;DHT22;3764;48.126;11.594;2023-08-20T08:42:42;24.30;99.90
7445;DHT22;3764;48.126;11.594;2023-08-20T08:45:09;24.40;99.90
7445;DHT22;3764;48.126;11.594;2023-08-20T08:47:39;24.40;99.90
7445;DHT22;3764;48.126;11.594;2023-08-20T08:50:08;24.50;99.90
7445;DHT22;3764;48.126;11.594;2023-08-20T08:52:37;24.50;99.90
7445;DHT22;3764;48.126;11.594;2023-08-20T08:55:05;24.60;99.90
7445;DHT22;3764;48.126;11.594;2023-08-20T08:57:35;24.60;99.90
7445;DHT22;3764;48.126;11.594;2023-08-20T09:00:03;24.60;99.90
7445;DHT22;3764;48.126;11.594;2023-08-20T09:02:31;24.70;99.90
7445;DHT22;3764;48.126;11.594;2023-08-20T09:04:58;24.80;99.90
7445;DHT22;3764;48.126;11.594;2023-08-20T09:07:25;24.80;99.90
7445;DHT22;3764;48.126;11.594;2023-08-20T09:09:57;24.80;99.90
7445;DHT22;3764;48.126;11.594;2023-08-20T09:12:25;24.90;99.90
7445;DHT22;3764;48.126;11.594;2023-08-20T09:14:55;25.00;99.90
7445;DHT22;3764;48.126;11.594;2023-08-20T09:17:26;25.10;99.90
7445;DHT22;3764;48.126;11.594;2023-08-20T09:19:55;25.10;99.90
7445;DHT22;3764;48.126;11.594;2023-08-20T09:22:23;25.30;99.90
7445;DHT22;3764;48.126;11.594;2023-08-20T09:24:54;25.30;99.90
7445;DHT22;3764;48.126;11.594;2023-08-20T09:27:22;25.40;99.90
7445;DHT22;3764;48.126;11.594;2023-08-20T09:29:50;25.40;99.90
7445;DHT22;3764;48.126;11.594;2023-08-20T09:32:20;25.50;99.90
7445;DHT22;3764;48.126;11.594;2023-08-20T09:34:48;25.50;99.90
7445;DHT22;3764;48.126;11.594;2023-08-20T09:37:17;25.60;99.90
7445;DHT22;3764;48.126;11.594;2023-08-20T09:39:44;25.70;99.90
7445;DHT22;3764;48.126;11.594;2023-08-20T09:42:12;25.80;99.90
7445;DHT22;3764;48.126;11.594;2023-08-20T09:44:42;25.80;99.90
7445;DHT22;3764;48.126;11.594;2023-08-20T09:47:10;25.90;99.90
7445;DHT22;3764;48.126;11.594;2023-08-20T09:49:40;26.00;99.90
7445;DHT22;3764;48.126;11.594;2023-08-20T09:52:08;26.00;99.90
7445;DHT22;3764;48.126;11.594;2023-08-20T09:54:49;26.10;99.90
7445;DHT22;3764;48.126;11.594;2023-08-20T09:57:23;26.20;99.90
7445;DHT22;3764;48.126;11.594;2023-08-20T09:59:53;26.30;99.90
7445;DHT22;3764;48.126;11.594;2023-08-20T10:02:21;26.40;99.90
7445;DHT22;3764;48.126;11.594;2023-08-20T10:04:50;26.50;99.90
7445;DHT22;3764;48.126;11.594;2023-08-20T10:07:19;26.50;99.90
7445;DHT22;3764;48.126;11.594;2023-08-20T10:09:46;26.60;99.90
7445;DHT22;3764;48.126;11.594;2023-08-20T10:12:16;26.60;99.90
7445;DHT22;3764;48.126;11.594;2023-08-20T10:14:43;26.70;99.90
7445;DHT22;3764;48.126;11.594;2023-08-20T10:17:12;26.70;99.90
7445;DHT22;3764;48.126;11.594;2023-08-20T10:19:41;26.80;99.90
7445;DHT22;3764;48.126;11.594;2023-08-20T10:22:10;26.80;99.90
7445;DHT22;3764;48.126;11.594;2023-08-20T10:24:48;26.80;99.90
7445;DHT22;3764;48.126;11.594;2023-08-20T10:27:26;26.80;99.90
7445;DHT22;3764;48.126;11.594;2023-08-20T10:29:54;26.80;99.90
7445;DHT22;3764;48.126;11.594;2023-08-20T10:32:46;26.90;99.90
7445;DHT22;3764;48.126;11.594;2023-08-20T10:35:15;26.90;99.90
7445;DHT22;3764;48.126;11.594;2023-08-20T10:38:00;26.90;99.90
7445;DHT22;3764;48.126;11.594;2023-08-20T10:40:53;27.00;99.90
7445;DHT22;3764;48.126;11.594;2023-08-20T10:43:31;27.10;99.90
7445;DHT22;3764;48.126;11.594;2023-08-20T10:46:13;27.10;99.90
7445;DHT22;3764;48.126;11.594;2023-08-20T10:48:43;27.10;99.90
7445;DHT22;3764;48.126;11.594;2023-08-20T10:51:14;27.10;99.90
7445;DHT22;3764;48.126;11.594;2023-08-20T10:53:43;27.20;99.90
7445;DHT22;3764;48.126;11.594;2023-08-20T10:56:14;27.20;99.90
7445;DHT22;3764;48.126;11.594;2023-08-20T10:58:43;27.30;99.90
7445;DHT22;3764;48.126;11.594;2023-08-20T11:01:19;27.20;99.90
7445;DHT22;3764;48.126;11.594;2023-08-20T11:03:48;27.30;99.90
7445;DHT22;3764;48.126;11.594;2023-08-20T11:06:16;27.30;99.90
7445;DHT22;3764;48.126;11.594;2023-08-20T11:08:44;27.40;99.90
7445;DHT22;3764;48.126;11.594;2023-08-20T11:11:11;27.30;99.90
7445;DHT22;3764;48.126;11.594;2023-08-20T11:13:39;27.30;99.90
7445;DHT22;3764;48.126;11.594;2023-08-20T11:16:08;27.20;99.90
7445;DHT22;3764;48.126;11.594;2023-08-20T11:18:36;27.20;99.90
7445;DHT22;3764;48.126;11.594;2023-08-20T11:21:05;27.20;99.90
7445;DHT22;3764;48.126;11.594;2023-08-20T11:23:32;27.30;99.90
7445;DHT22;3764;48.126;11.594;2023-08-20T11:26:00;27.30;99.90
7445;DHT22;3764;48.126;11.594;2023-08-20T11:28:28;27.40;99.90
7445;DHT22;3764;48.126;11.594;2023-08-20T11:30:56;27.50;99.90
7445;DHT22;3764;48.126;11.594;2023-08-20T11:33:23;27.60;99.90
7445;DHT22;3764;48.126;11.594;2023-08-20T11:35:52;27.60;99.90
7445;DHT22;3764;48.126;11.594;2023-08-20T11:38:23;27.60;99.90
7445;DHT22;3764;48.126;11.594;2023-08-20T11:40:50;27.70;99.90
7445;DHT22;3764;48.126;11.594;2023-08-20T11:43:17;27.80;99.90
7445;DHT22;3764;48.126;11.594;2023-08-20T11:45:46;27.80;99.90
7445;DHT22;3764;48.126;11.594;2023-08-20T11:48:14;27.80;99.90
7445;DHT22;3764;48.126;11.594;2023-08-20T11:50:42;27.90;99.90
7445;DHT22;3764;48.126;11.594;2023-08-20T11:53:09;27.90;99.90
7445;DHT22;3764;48.126;11.594;2023-08-20T11:55:39;27.90;99.90
7445;DHT22;3764;48.126;11.594;2023-08-20T11:58:11;27.90;99.90
7445;DHT22;3764;48.126;11.594;2023-08-20T12:00:38;28.00;99.90
7445;DHT22;3764;48.126;11.594;2023-08-20T12:03:05;28.10;99.90
7445;DHT22;3764;48.126;11.594;2023-08-20T12:05:33;28.10;99.90
7445;DHT22;3764;48.126;11.594;2023-08-20T12:08:02;28.10;99.90
7445;DHT22;3764;48.126;11.594;2023-08-20T12:10:31;28.10;99.90
7445;DHT22;3764;48.126;11.594;2023-08-20T12:12:59;28.10;99.90
7445;DHT22;3764;48.126;11.594;2023-08-20T12:15:26;28.20;99.90
7445;DHT22;3764;48.126;11.594;2023-08-20T12:18:00;28.20;99.90
7445;DHT22;3764;48.126;11.594;2023-08-20T12:20:29;28.30;99.90
7445;DHT22;3764;48.126;11.594;2023-08-20T12:22:58;28.30;99.90
7445;DHT22;3764;48.126;11.594;2023-08-20T12:25:26;28.40;99.90
7445;DHT22;3764;48.126;11.594;2023-08-20T12:27:53;28.40;99.90
7445;DHT22;3764;48.126;11.594;2023-08-20T12:30:23;28.40;99.90
7445;DHT22;3764;48.126;11.594;2023-08-20T12:32:50;28.50;99.90
7445;DHT22;3764;48.126;11.594;2023-08-20T12:35:18;28.50;99.90
7445;DHT22;3764;48.126;11.594;2023-08-20T12:37:45;28.50;99.90
7445;DHT22;3764;48.126;11.594;2023-08-20T12:40:12;28.50;99.90
7445;DHT22;3764;48.126;11.594;2023-08-20T12:42:39;28.60;99.90
7445;DHT22;3764;48.126;11.594;2023-08-20T12:45:07;28.60;99.90
7445;DHT22;3764;48.126;11.594;2023-08-20T12:47:36;28.70;99.90
7445;DHT22;3764;48.126;11.594;2023-08-20T12:50:03;28.70;99.90
7445;DHT22;3764;48.126;11.594;2023-08-20T12:52:31;28.70;99.90
7445;DHT22;3764;48.126;11.594;2023-08-20T12:54:58;28.70;99.90
7445;DHT22;3764;48.126;11.594;2023-08-20T12:57:25;28.70;99.90
7445;DHT22;3764;48.126;11.594;2023-08-20T12:59:52;28.80;99.90
7445;DHT22;3764;48.126;11.594;2023-08-20T13:02:20;28.80;99.80
7445;DHT22;3764;48.126;11.594;2023-08-20T13:04:49;28.80;99.70
7445;DHT22;3764;48.126;11.594;2023-08-20T13:07:16;28.80;99.70
7445;DHT22;3764;48.126;11.594;2023-08-20T13:09:44;28.80;99.30
7445;DHT22;3764;48.126;11.594;2023-08-20T13:12:12;28.80;98.90
7445;DHT22;3764;48.126;11.594;2023-08-20T13:14:40;28.90;98.70
7445;DHT22;3764;48.126;11.594;2023-08-20T13:17:08;28.90;99.10
7445;DHT22;3764;48.126;11.594;2023-08-20T13:19:36;29.00;99.40
7445;DHT22;3764;48.126;11.594;2023-08-20T13:22:05;29.00;99.60
7445;DHT22;3764;48.126;11.594;2023-08-20T13:24:32;29.10;99.70
7445;DHT22;3764;48.126;11.594;2023-08-20T13:27:00;29.10;99.80
7445;DHT22;3764;48.126;11.594;2023-08-20T13:29:27;29.10;99.80
7445;DHT22;3764;48.126;11.594;2023-08-20T13:31:54;29.10;99.80
7445;DHT22;3764;48.126;11.594;2023-08-20T13:34:21;29.10;99.90
7445;DHT22;3764;48.126;11.594;2023-08-20T13:36:48;29.10;99.50
7445;DHT22;3764;48.126;11.594;2023-08-20T13:39:17;29.10;99.80
7445;DHT22;3764;48.126;11.594;2023-08-20T13:41:45;29.10;99.60
7445;DHT22;3764;48.126;11.594;2023-08-20T13:44:12;29.10;99.50
7445;DHT22;3764;48.126;11.594;2023-08-20T13:46:40;29.10;99.80
7445;DHT22;3764;48.126;11.594;2023-08-20T13:49:07;29.10;99.60
7445;DHT22;3764;48.126;11.594;2023-08-20T13:51:34;29.10;99.70
7445;DHT22;3764;48.126;11.594;2023-08-20T13:54:01;29.10;99.90
7445;DHT22;3764;48.126;11.594;2023-08-20T13:56:30;29.20;99.90
7445;DHT22;3764;48.126;11.594;2023-08-20T13:58:57;29.10;99.90
7445;DHT22;3764;48.126;11.594;2023-08-20T14:01:24;29.20;99.90
7445;DHT22;3764;48.126;11.594;2023-08-20T14:03:52;29.20;99.90
7445;DHT22;3764;48.126;11.594;2023-08-20T14:06:19;29.20;99.90
7445;DHT22;3764;48.126;11.594;2023-08-20T14:08:47;29.20;99.90
7445;DHT22;3764;48.126;11.594;2023-08-20T14:11:14;29.20;99.90
7445;DHT22;3764;48.126;11.594;2023-08-20T14:13:42;29.20;99.90
7445;DHT22;3764;48.126;11.594;2023-08-20T14:16:09;29.20;99.90
7445;DHT22;3764;48.126;11.594;2023-08-20T14:18:36;29.20;99.90
7445;DHT22;3764;48.126;11.594;2023-08-20T14:21:04;29.30;99.90
7445;DHT22;3764;48.126;11.594;2023-08-20T14:23:31;29.30;99.70
7445;DHT22;3764;48.126;11.594;2023-08-20T14:25:58;29.30;99.80
7445;DHT22;3764;48.126;11.594;2023-08-20T14:28:25;29.30;99.90
7445;DHT22;3764;48.126;11.594;2023-08-20T14:30:54;29.30;99.80
7445;DHT22;3764;48.126;11.594;2023-08-20T14:33:21;29.30;99.70
7445;DHT22;3764;48.126;11.594;2023-08-20T14:35:48;29.30;99.90
7445;DHT22;3764;48.126;11.594;2023-08-20T14:38:15;29.30;99.70
7445;DHT22;3764;48.126;11.594;2023-08-20T14:40:42;29.30;99.90
7445;DHT22;3764;48.126;11.594;2023-08-20T14:43:09;29.30;99.90
7445;DHT22;3764;48.126;11.594;2023-08-20T14:45:36;29.30;99.90
7445;DHT22;3764;48.126;11.594;2023-08-20T14:48:05;29.30;99.90
7445;DHT22;3764;48.126;11.594;2023-08-20T14:50:32;29.30;99.90
7445;DHT22;3764;48.126;11.594;2023-08-20T14:53:00;29.30;99.90
7445;DHT22;3764;48.126;11.594;2023-08-20T14:55:27;29.30;99.90
7445;DHT22;3764;48.126;11.594;2023-08-20T14:57:55;29.30;99.90
7445;DHT22;3764;48.126;11.594;2023-08-20T15:00:22;29.30;99.90
7445;DHT22;3764;48.126;11.594;2023-08-20T15:02:50;29.30;99.90
7445;DHT22;3764;48.126;11.594;2023-08-20T15:05:18;29.30;99.90
7445;DHT22;3764;48.126;11.594;2023-08-20T15:07:46;29.30;99.90
7445;DHT22;3764;48.126;11.594;2023-08-20T15:10:13;29.30;99.90
7445;DHT22;3764;48.126;11.594;2023-08-20T15:12:40;29.30;99.90
7445;DHT22;3764;48.126;11.594;2023-08-20T15:15:08;29.30;99.90
7445;DHT22;3764;48.126;11.594;2023-08-20T15:17:35;29.30;99.90
7445;DHT22;3764;48.126;11.594;2023-08-20T15:20:03;29.40;99.90
7445;DHT22;3764;48.126;11.594;2023-08-20T15:22:34;29.40;99.90
7445;DHT22;3764;48.126;11.594;2023-08-20T15:25:01;29.40;99.90
7445;DHT22;3764;48.126;11.594;2023-08-20T15:27:30;29.50;99.90
7445;DHT22;3764;48.126;11.594;2023-08-20T15:29:57;29.60;99.90
7445;DHT22;3764;48.126;11.594;2023-08-20T15:32:24;29.60;99.90
7445;DHT22;3764;48.126;11.594;2023-08-20T15:34:52;29.80;99.90
7445;DHT22;3764;48.126;11.594;2023-08-20T15:37:20;29.90;99.90
7445;DHT22;3764;48.126;11.594;2023-08-20T15:39:48;29.80;99.90
7445;DHT22;3764;48.126;11.594;2023-08-20T15:42:16;29.90;99.90
7445;DHT22;3764;48.126;11.594;2023-08-20T15:44:44;30.00;99.90
7445;DHT22;3764;48.126;11.594;2023-08-20T15:47:11;30.00;99.90
7445;DHT22;3764;48.126;11.594;2023-08-20T15:49:39;30.10;99.90
7445;DHT22;3764;48.126;11.594;2023-08-20T15:52:06;30.10;99.90